Time;durP1;ratioP1;P1;durP2;ratioP2;P2;SDS_P1;SDS_P2;PMS_P1;PMS_P2;Temp;Humidity;BMP_temperature;BMP_pressure;BME280_temperature;BME280_humidity;BME280_pressure;Samples;Min_cycle;Max_cycle;Signal;HPM_P1;HPM_P2
2022/08/20 00:00:34;;;;;;;13.90;12.07;;;;;;;;;;6269144;22;20198;-73
2022/08/20 00:03:02;;;;;;;17.08;12.63;;;;;;;;;;6270763;22;20178;-73
2022/08/20 00:05:29;;;;;;;13.95;12.15;;;;;;;;;;6269396;22;20675;-73
2022/08/20 00:07:55;;;;;;;14.82;13.25;;;;;;;;;;6272604;22;20237;-73
2022/08/20 00:10:21;;;;;;;16.42;12.82;;;;;;;;;;6271219;22;20172;-73
2022/08/20 00:12:47;;;;;;;14.68;11.75;;;;;;;;;;6272570;22;20159;-73
2022/08/20 00:15:13;;;;;;;18.38;12.90;;;;;;;;;;6274422;22;20191;-73
2022/08/20 00:17:39;;;;;;;15.02;13.02;;;;;;;;;;6274890;22;20156;-73
2022/08/20 00:20:07;;;;;;;18.27;14.65;;;;;;;;;;6274269;22;20165;-73
2022/08/20 00:22:32;;;;;;;17.20;13.32;;;;;;;;;;6274620;22;20148;-73
2022/08/20 00:24:57;;;;;;;19.65;13.77;;;;;;;;;;6273506;22;20241;-73
2022/08/20 00:27:23;;;;;;;20.20;15.63;;;;;;;;;;6274917;22;20159;-72
2022/08/20 00:29:48;;;;;;;19.83;14.88;;;;;;;;;;6269609;22;20152;-72
2022/08/20 00:32:13;;;;;;;21.77;14.77;;;;;;;;;;6272781;22;20141;-72
2022/08/20 00:34:38;;;;;;;16.93;14.77;;;;;;;;;;6272547;22;20366;-71
2022/08/20 00:37:03;;;;;;;18.70;13.93;;;;;;;;;;6269904;22;20693;-72
2022/08/20 00:39:29;;;;;;;18.38;15.35;;;;;;;;;;6274887;22;20392;-71
2022/08/20 00:41:54;;;;;;;20.45;14.35;;;;;;;;;;6272515;22;20176;-72
2022/08/20 00:44:21;;;;;;;23.00;14.83;;;;;;;;;;6272724;22;20175;-72
2022/08/20 00:46:47;;;;;;;20.20;14.52;;;;;;;;;;6273569;22;20485;-72
2022/08/20 00:49:24;;;;;;;19.90;15.65;;;;;;;;;;6275261;22;20180;-72
2022/08/20 00:51:52;;;;;;;18.38;14.80;;;;;;;;;;6272454;22;20670;-72
2022/08/20 00:54:23;;;;;;;22.65;15.73;;;;;;;;;;6274634;22;20148;-72
2022/08/20 00:56:51;;;;;;;18.85;14.88;;;;;;;;;;6274139;22;20168;-72
2022/08/20 00:59:21;;;;;;;18.23;14.63;;;;;;;;;;6274622;22;20588;-72
2022/08/20 01:01:47;;;;;;;19.75;14.82;;;;;;;;;;6272665;22;20184;-72
2022/08/20 01:04:12;;;;;;;20.08;15.30;;;;;;;;;;6272764;22;20179;-72
2022/08/20 01:06:38;;;;;;;20.70;15.38;;;;;;;;;;6274379;22;20210;-72
2022/08/20 01:09:04;;;;;;;21.15;14.60;;;;;;;;;;6271322;22;20580;-72
2022/08/20 01:11:32;;;;;;;16.85;13.80;;;;;;;;;;6273681;22;20167;-72
2022/08/20 01:13:59;;;;;;;16.00;13.02;;;;;;;;;;6273555;22;20498;-71
2022/08/20 01:16:26;;;;;;;17.70;14.75;;;;;;;;;;6274033;22;20151;-72
2022/08/20 01:18:51;;;;;;;17.65;14.55;;;;;;;;;;6272805;22;20176;-72
2022/08/20 01:21:21;;;;;;;20.45;15.20;;;;;;;;;;6271765;22;20176;-73
2022/08/20 01:23:46;;;;;;;21.77;15.18;;;;;;;;;;6273127;22;20144;-73
2022/08/20 01:26:14;;;;;;;20.07;15.13;;;;;;;;;;6274229;22;20144;-73
2022/08/20 01:28:42;;;;;;;23.55;14.55;;;;;;;;;;6274087;22;20759;-73
2022/08/20 01:31:09;;;;;;;22.17;14.63;;;;;;;;;;6273295;22;20222;-73
2022/08/20 01:33:35;;;;;;;19.85;13.93;;;;;;;;;;6272018;22;20170;-72
2022/08/20 01:36:00;;;;;;;21.45;15.55;;;;;;;;;;6273426;22;20701;-72
2022/08/20 01:38:27;;;;;;;16.48;13.40;;;;;;;;;;6273596;22;20149;-73
2022/08/20 01:41:10;;;;;;;14.93;12.88;;;;;;;;;;6273760;22;20179;-73
2022/08/20 01:43:36;;;;;;;14.50;11.60;;;;;;;;;;6273699;22;20144;-73
2022/08/20 01:46:02;;;;;;;14.10;11.00;;;;;;;;;;6273649;22;20179;-73
2022/08/20 01:48:28;;;;;;;12.10;10.80;;;;;;;;;;6273773;22;20190;-72
2022/08/20 01:51:05;;;;;;;14.88;10.48;;;;;;;;;;6273490;22;20186;-73
2022/08/20 01:53:33;;;;;;;15.73;10.68;;;;;;;;;;6273975;22;20460;-73
2022/08/20 01:55:59;;;;;;;13.60;9.02;;;;;;;;;;6274361;22;20148;-73
2022/08/20 01:58:26;;;;;;;14.90;9.45;;;;;;;;;;6273553;22;20152;-73
2022/08/20 02:00:51;;;;;;;10.75;7.50;;;;;;;;;;6270453;22;20518;-72
2022/08/20 02:03:16;;;;;;;10.90;7.80;;;;;;;;;;6272942;22;20159;-72
2022/08/20 02:05:41;;;;;;;10.40;7.53;;;;;;;;;;6273754;22;20175;-73
2022/08/20 02:08:07;;;;;;;11.27;7.18;;;;;;;;;;6273310;22;20381;-71
2022/08/20 02:10:32;;;;;;;9.63;6.40;;;;;;;;;;6271176;22;20681;-72
2022/08/20 02:12:58;;;;;;;8.52;6.22;;;;;;;;;;6273247;22;20148;-71
2022/08/20 02:15:23;;;;;;;14.45;7.10;;;;;;;;;;6272829;22;20145;-72
2022/08/20 02:17:49;;;;;;;11.77;6.32;;;;;;;;;;6273399;22;20163;-72
2022/08/20 02:20:19;;;;;;;11.10;6.82;;;;;;;;;;6272269;22;20255;-71
2022/08/20 02:22:49;;;;;;;8.63;6.28;;;;;;;;;;6273757;22;20156;-72
2022/08/20 02:25:15;;;;;;;7.90;5.95;;;;;;;;;;6273352;22;20176;-71
2022/08/20 02:27:42;;;;;;;10.65;6.35;;;;;;;;;;6274504;22;20489;-72
2022/08/20 02:30:11;;;;;;;8.40;6.00;;;;;;;;;;6273137;22;20168;-72
2022/08/20 02:32:36;;;;;;;10.43;6.45;;;;;;;;;;6273591;22;20596;-72
2022/08/20 02:35:03;;;;;;;11.00;6.50;;;;;;;;;;6273006;22;20277;-73
2022/08/20 02:37:29;;;;;;;11.52;6.63;;;;;;;;;;6274036;22;20487;-71
2022/08/20 02:39:54;;;;;;;15.52;7.38;;;;;;;;;;6273058;22;20248;-72
2022/08/20 02:42:20;;;;;;;7.90;5.60;;;;;;;;;;6273228;22;20151;-72
2022/08/20 02:44:45;;;;;;;9.88;5.38;;;;;;;;;;6272675;22;20884;-71
2022/08/20 02:47:10;;;;;;;8.73;5.50;;;;;;;;;;6274170;22;20179;-72
2022/08/20 02:49:35;;;;;;;9.18;5.55;;;;;;;;;;6272971;22;20527;-71
2022/08/20 02:52:01;;;;;;;11.80;5.70;;;;;;;;;;6274186;22;20216;-72
2022/08/20 02:54:26;;;;;;;9.52;6.25;;;;;;;;;;6275194;22;20199;-71
2022/08/20 02:56:51;;;;;;;11.00;5.88;;;;;;;;;;6275784;22;20171;-72
2022/08/20 02:59:17;;;;;;;9.30;5.18;;;;;;;;;;6274887;22;20584;-71
2022/08/20 03:01:42;;;;;;;8.90;5.68;;;;;;;;;;6275250;22;20184;-72
2022/08/20 03:04:07;;;;;;;8.15;5.20;;;;;;;;;;6274652;22;20172;-71
2022/08/20 03:06:33;;;;;;;9.43;5.97;;;;;;;;;;6275861;22;20140;-71
2022/08/20 03:08:59;;;;;;;7.50;4.78;;;;;;;;;;6274681;22;20647;-72
2022/08/20 03:11:24;;;;;;;6.10;4.45;;;;;;;;;;6274137;22;20167;-72
2022/08/20 03:13:51;;;;;;;7.35;4.82;;;;;;;;;;6275132;22;20152;-72
2022/08/20 03:16:16;;;;;;;6.22;4.43;;;;;;;;;;6272922;22;20190;-72
2022/08/20 03:18:43;;;;;;;9.25;4.68;;;;;;;;;;6273330;22;20156;-71
2022/08/20 03:21:09;;;;;;;8.45;4.82;;;;;;;;;;6273571;22;20173;-71
2022/08/20 03:23:35;;;;;;;7.60;4.60;;;;;;;;;;6275210;22;20596;-72
2022/08/20 03:26:01;;;;;;;8.45;4.80;;;;;;;;;;6274168;22;20172;-72
2022/08/20 03:28:27;;;;;;;7.05;4.50;;;;;;;;;;6275173;22;20140;-72
2022/08/20 03:30:52;;;;;;;9.43;4.70;;;;;;;;;;6274375;22;20183;-71
2022/08/20 03:33:19;;;;;;;7.00;4.88;;;;;;;;;;6274998;22;20366;-71
2022/08/20 03:35:44;;;;;;;5.70;4.32;;;;;;;;;;6275305;22;20144;-72
2022/08/20 03:38:10;;;;;;;9.68;4.85;;;;;;;;;;6273397;22;20156;-72
2022/08/20 03:40:36;;;;;;;8.13;4.50;;;;;;;;;;6274381;22;20258;-72
2022/08/20 03:43:02;;;;;;;5.75;3.83;;;;;;;;;;6274745;22;20619;-72
2022/08/20 03:45:28;;;;;;;8.35;4.30;;;;;;;;;;6274683;22;20492;-72
2022/08/20 03:47:53;;;;;;;7.97;3.80;;;;;;;;;;6272816;22;20155;-72
2022/08/20 03:50:20;;;;;;;8.77;4.10;;;;;;;;;;6274690;22;20647;-73
2022/08/20 03:52:45;;;;;;;6.28;4.65;;;;;;;;;;6273438;22;20175;-73
2022/08/20 03:55:10;;;;;;;8.77;4.18;;;;;;;;;;6274637;22;20155;-72
2022/08/20 03:57:42;;;;;;;10.15;4.43;;;;;;;;;;6273596;22;20145;-73
2022/08/20 04:00:07;;;;;;;7.72;4.43;;;;;;;;;;6273535;22;20260;-73
2022/08/20 04:02:33;;;;;;;11.77;5.00;;;;;;;;;;6275049;22;20160;-74
2022/08/20 04:04:58;;;;;;;10.73;4.88;;;;;;;;;;6272154;22;20180;-74
2022/08/20 04:07:24;;;;;;;9.30;4.28;;;;;;;;;;6275131;22;20152;-71
2022/08/20 04:09:58;;;;;;;10.25;4.68;;;;;;;;;;6274700;22;20148;-71
2022/08/20 04:12:24;;;;;;;8.20;3.80;;;;;;;;;;6274363;22;20128;-71
2022/08/20 04:14:50;;;;;;;8.48;4.40;;;;;;;;;;6274370;22;20540;-72
2022/08/20 04:17:16;;;;;;;11.00;4.35;;;;;;;;;;6274456;22;20157;-72
2022/08/20 04:19:43;;;;;;;8.00;4.22;;;;;;;;;;6273089;22;20159;-72
2022/08/20 04:22:09;;;;;;;10.75;5.38;;;;;;;;;;6274607;22;20148;-72
2022/08/20 04:24:36;;;;;;;7.63;4.80;;;;;;;;;;6272852;22;20225;-72
2022/08/20 04:27:04;;;;;;;6.15;4.22;;;;;;;;;;6274686;22;20144;-71
2022/08/20 04:29:29;;;;;;;10.82;4.93;;;;;;;;;;6274131;22;20220;-71
2022/08/20 04:31:55;;;;;;;10.32;5.60;;;;;;;;;;6273105;22;20631;-72
2022/08/20 04:34:20;;;;;;;9.85;4.75;;;;;;;;;;6273136;22;20153;-72
2022/08/20 04:36:46;;;;;;;9.13;5.43;;;;;;;;;;6274309;22;20197;-72
2022/08/20 04:39:12;;;;;;;8.60;5.20;;;;;;;;;;6271851;22;20156;-71
2022/08/20 04:41:37;;;;;;;13.05;5.93;;;;;;;;;;6273087;22;20173;-72
2022/08/20 04:44:02;;;;;;;12.93;5.27;;;;;;;;;;6274195;22;20623;-71
2022/08/20 04:46:27;;;;;;;8.93;5.60;;;;;;;;;;6274701;22;20420;-72
2022/08/20 04:48:53;;;;;;;8.23;5.40;;;;;;;;;;6274070;22;20148;-72
2022/08/20 04:51:18;;;;;;;9.95;5.30;;;;;;;;;;6298394;22;20175;-72
2022/08/20 04:53:44;;;;;;;9.88;5.40;;;;;;;;;;6274079;22;20489;-72
2022/08/20 04:56:10;;;;;;;10.68;5.35;;;;;;;;;;6272517;22;20151;-72
2022/08/20 04:58:36;;;;;;;7.72;4.70;;;;;;;;;;6274021;22;20155;-72
2022/08/20 05:01:04;;;;;;;9.13;5.57;;;;;;;;;;6273778;22;20721;-74
2022/08/20 05:03:30;;;;;;;8.82;5.28;;;;;;;;;;6274404;22;20219;-74
2022/08/20 05:05:56;;;;;;;8.43;5.32;;;;;;;;;;6274100;22;20198;-74
2022/08/20 05:08:22;;;;;;;8.98;6.05;;;;;;;;;;6273802;22;20175;-74
2022/08/20 05:10:48;;;;;;;8.43;4.97;;;;;;;;;;6274077;22;20207;-75
2022/08/20 05:13:13;;;;;;;8.15;5.43;;;;;;;;;;6273399;22;20175;-74
2022/08/20 05:15:39;;;;;;;7.68;6.15;;;;;;;;;;6272780;22;20152;-74
2022/08/20 05:18:06;;;;;;;6.68;5.63;;;;;;;;;;6273520;22;20145;-74
2022/08/20 05:20:33;;;;;;;10.68;6.45;;;;;;;;;;6295311;22;20261;-74
2022/08/20 05:23:00;;;;;;;10.13;6.30;;;;;;;;;;6273742;22;20635;-74
2022/08/20 05:25:28;;;;;;;8.38;6.32;;;;;;;;;;6271882;22;20211;-74
2022/08/20 05:28:00;;;;;;;11.80;7.82;;;;;;;;;;6270860;22;20152;-74
2022/08/20 05:30:32;;;;;;;12.10;6.00;;;;;;;;;;6273874;22;20238;-74
2022/08/20 05:32:57;;;;;;;13.95;6.63;;;;;;;;;;6273339;22;20151;-74
2022/08/20 05:35:22;;;;;;;7.95;6.18;;;;;;;;;;6273566;22;20603;-75
2022/08/20 05:37:48;;;;;;;8.40;6.07;;;;;;;;;;6272417;22;20187;-76
2022/08/20 05:40:13;;;;;;;12.27;6.90;;;;;;;;;;6271059;22;20202;-76
2022/08/20 05:42:39;;;;;;;7.45;5.78;;;;;;;;;;6272456;22;20162;-76
2022/08/20 05:45:04;;;;;;;9.93;5.10;;;;;;;;;;6273712;22;20222;-75
2022/08/20 05:47:30;;;;;;;9.25;5.82;;;;;;;;;;6272011;22;20148;-75
2022/08/20 05:49:55;;;;;;;9.65;5.65;;;;;;;;;;6273972;22;20164;-75
2022/08/20 05:52:20;;;;;;;9.53;5.40;;;;;;;;;;6273900;22;20164;-74
2022/08/20 05:54:45;;;;;;;9.75;5.40;;;;;;;;;;6274075;22;20705;-75
2022/08/20 05:57:12;;;;;;;11.82;5.43;;;;;;;;;;6271177;22;20211;-76
2022/08/20 05:59:38;;;;;;;8.32;4.80;;;;;;;;;;6270292;22;20156;-74
2022/08/20 06:04:23;;;;;;;9.00;4.68;;;;;;;;;;6268894;22;20164;-74
2022/08/20 06:04:49;;;;;;;7.60;4.47;;;;;;;;;;6272971;22;20206;-74
2022/08/20 06:07:15;;;;;;;10.73;4.50;;;;;;;;;;6271600;22;20576;-74
2022/08/20 06:09:40;;;;;;;9.18;4.63;;;;;;;;;;6272344;22;20358;-74
2022/08/20 06:12:07;;;;;;;7.03;4.15;;;;;;;;;;6273316;22;20194;-74
2022/08/20 06:14:32;;;;;;;11.48;5.45;;;;;;;;;;6273888;22;20159;-74
2022/08/20 06:17:11;;;;;;;8.15;4.70;;;;;;;;;;6274093;22;20144;-75
2022/08/20 06:19:37;;;;;;;9.10;4.40;;;;;;;;;;6271168;22;20630;-74
2022/08/20 06:22:03;;;;;;;10.50;4.82;;;;;;;;;;6273140;22;20175;-74
2022/08/20 06:24:28;;;;;;;12.05;4.40;;;;;;;;;;6297499;22;20190;-74
2022/08/20 06:26:57;;;;;;;9.75;4.38;;;;;;;;;;6273950;22;20154;-74
2022/08/20 06:29:22;;;;;;;9.30;4.25;;;;;;;;;;6275450;22;20171;-74
2022/08/20 06:31:47;;;;;;;9.13;3.90;;;;;;;;;;6275182;22;20516;-74
2022/08/20 06:34:13;;;;;;;13.00;4.93;;;;;;;;;;6274815;22;20144;-74
2022/08/20 06:36:39;;;;;;;10.25;4.57;;;;;;;;;;6276229;22;20362;-74
2022/08/20 06:39:04;;;;;;;10.27;4.15;;;;;;;;;;6273495;22;20148;-74
2022/08/20 06:41:29;;;;;;;6.80;3.93;;;;;;;;;;6274641;22;20168;-74
2022/08/20 06:43:55;;;;;;;5.87;3.70;;;;;;;;;;6274842;22;20357;-74
2022/08/20 06:46:22;;;;;;;7.72;3.55;;;;;;;;;;6275684;22;20394;-74
2022/08/20 06:48:47;;;;;;;6.03;3.25;;;;;;;;;;6274916;22;20226;-74
2022/08/20 06:51:13;;;;;;;9.13;3.63;;;;;;;;;;6275722;22;20202;-74
2022/08/20 06:53:38;;;;;;;11.75;3.75;;;;;;;;;;6275409;22;20141;-74
2022/08/20 06:56:03;;;;;;;6.80;3.70;;;;;;;;;;6273273;22;20192;-74
2022/08/20 06:58:30;;;;;;;12.75;3.65;;;;;;;;;;6272671;22;20380;-74
2022/08/20 07:00:55;;;;;;;12.82;3.38;;;;;;;;;;6273535;22;20202;-74
2022/08/20 07:03:21;;;;;;;8.77;3.60;;;;;;;;;;6274781;22;20536;-74
2022/08/20 07:05:46;;;;;;;6.63;3.33;;;;;;;;;;6275431;22;20447;-74
2022/08/20 07:08:12;;;;;;;9.13;3.63;;;;;;;;;;6275231;22;20368;-74
2022/08/20 07:10:37;;;;;;;6.40;3.60;;;;;;;;;;6274023;22;20172;-74
2022/08/20 07:13:02;;;;;;;10.45;4.20;;;;;;;;;;6275035;22;20222;-74
2022/08/20 07:15:28;;;;;;;7.77;3.07;;;;;;;;;;6273415;22;20177;-74
2022/08/20 07:17:54;;;;;;;6.78;2.25;;;;;;;;;;6275551;22;20362;-74
2022/08/20 07:20:20;;;;;;;7.40;3.00;;;;;;;;;;6274800;22;20247;-74
2022/08/20 07:22:45;;;;;;;5.15;1.85;;;;;;;;;;6275418;22;20144;-74
2022/08/20 07:25:11;;;;;;;5.80;2.70;;;;;;;;;;6274807;22;20168;-74
2022/08/20 07:27:36;;;;;;;12.23;3.22;;;;;;;;;;6274569;22;20145;-74
2022/08/20 07:32:46;;;;;;;6.57;2.42;;;;;;;;;;6274043;22;20523;-74
2022/08/20 07:35:13;;;;;;;7.65;2.20;;;;;;;;;;6273402;22;20188;-74
2022/08/20 07:37:40;;;;;;;8.90;2.50;;;;;;;;;;6274920;22;20235;-74
2022/08/20 07:40:06;;;;;;;9.63;2.83;;;;;;;;;;6274334;22;20164;-73
2022/08/20 07:42:31;;;;;;;6.28;1.90;;;;;;;;;;6274386;22;20149;-73
2022/08/20 07:44:56;;;;;;;6.10;1.63;;;;;;;;;;6273918;22;20291;-73
2022/08/20 07:47:22;;;;;;;7.53;1.80;;;;;;;;;;6274460;22;20376;-73
2022/08/20 07:49:47;;;;;;;6.65;2.00;;;;;;;;;;6274596;22;20362;-73
2022/08/20 07:52:12;;;;;;;5.90;2.05;;;;;;;;;;6274148;22;20172;-73
2022/08/20 07:54:38;;;;;;;4.85;1.58;;;;;;;;;;6273878;22;20600;-73
2022/08/20 07:57:03;;;;;;;3.92;1.65;;;;;;;;;;6275282;22;20197;-73
2022/08/20 07:59:29;;;;;;;2.47;1.10;;;;;;;;;;6274354;22;20149;-73
2022/08/20 08:01:54;;;;;;;5.78;1.60;;;;;;;;;;6273262;22;20711;-73
2022/08/20 08:04:19;;;;;;;6.75;2.00;;;;;;;;;;6274736;22;20198;-72
2022/08/20 08:06:44;;;;;;;4.73;1.30;;;;;;;;;;6274297;22;20495;-73
2022/08/20 08:09:12;;;;;;;6.23;1.40;;;;;;;;;;6273808;22;20357;-73
2022/08/20 08:11:40;;;;;;;6.97;1.70;;;;;;;;;;6272170;22;20385;-73
2022/08/20 08:14:06;;;;;;;7.97;1.70;;;;;;;;;;6273304;22;20141;-73
2022/08/20 08:16:33;;;;;;;4.88;1.63;;;;;;;;;;6273594;22;20209;-73
2022/08/20 08:19:00;;;;;;;3.40;1.05;;;;;;;;;;6274600;22;20149;-73
2022/08/20 08:21:25;;;;;;;8.30;1.48;;;;;;;;;;6273088;22;20175;-73
2022/08/20 08:23:52;;;;;;;7.03;1.90;;;;;;;;;;6275075;22;20148;-73
2022/08/20 08:26:18;;;;;;;3.25;1.30;;;;;;;;;;6275169;22;20935;-73
2022/08/20 08:28:43;;;;;;;5.38;1.80;;;;;;;;;;6273962;22;20194;-73
2022/08/20 08:31:09;;;;;;;6.13;1.55;;;;;;;;;;6273497;22;20160;-73
2022/08/20 08:33:35;;;;;;;10.40;1.92;;;;;;;;;;6274422;22;20145;-73
2022/08/20 08:36:02;;;;;;;5.35;1.17;;;;;;;;;;6273624;22;20600;-74
2022/08/20 08:38:28;;;;;;;5.55;1.58;;;;;;;;;;6274914;22;20145;-74
2022/08/20 08:40:54;;;;;;;5.82;2.15;;;;;;;;;;6274285;22;20302;-74
2022/08/20 08:43:20;;;;;;;6.15;2.10;;;;;;;;;;6272371;22;20611;-74
2022/08/20 08:45:47;;;;;;;3.92;1.55;;;;;;;;;;6274723;22;20635;-74
2022/08/20 08:48:15;;;;;;;4.95;1.50;;;;;;;;;;6272630;22;20156;-74
2022/08/20 08:50:41;;;;;;;8.30;2.28;;;;;;;;;;6273762;22;20647;-74
2022/08/20 08:53:08;;;;;;;5.45;1.85;;;;;;;;;;6274756;22;20140;-74
2022/08/20 08:55:34;;;;;;;6.57;2.10;;;;;;;;;;6274241;22;20148;-74
2022/08/20 08:58:00;;;;;;;5.07;1.77;;;;;;;;;;6274442;22;20587;-74
2022/08/20 09:00:27;;;;;;;4.18;1.42;;;;;;;;;;6272685;22;20934;-74
2022/08/20 09:02:58;;;;;;;4.25;1.35;;;;;;;;;;6273466;22;20153;-74
2022/08/20 09:05:26;;;;;;;5.70;1.50;;;;;;;;;;6273560;22;20518;-74
2022/08/20 09:07:52;;;;;;;6.53;2.58;;;;;;;;;;6273542;22;20168;-74
2022/08/20 09:10:18;;;;;;;5.10;1.60;;;;;;;;;;6273551;22;20247;-73
2022/08/20 09:12:43;;;;;;;7.10;1.83;;;;;;;;;;6273339;22;20179;-73
2022/08/20 09:15:08;;;;;;;6.47;1.77;;;;;;;;;;6272014;22;20156;-73
2022/08/20 09:17:34;;;;;;;5.40;1.48;;;;;;;;;;6271493;22;20238;-73
2022/08/20 09:19:59;;;;;;;7.17;1.60;;;;;;;;;;6272546;22;20227;-74
2022/08/20 09:22:24;;;;;;;5.23;1.70;;;;;;;;;;6271884;22;20152;-74
2022/08/20 09:24:50;;;;;;;5.88;1.63;;;;;;;;;;6273464;22;20218;-74
2022/08/20 09:27:15;;;;;;;6.45;1.52;;;;;;;;;;6272139;22;20492;-73
2022/08/20 09:29:40;;;;;;;3.65;1.25;;;;;;;;;;6273884;22;20170;-73
2022/08/20 09:32:10;;;;;;;5.87;1.70;;;;;;;;;;6273017;22;20144;-73
2022/08/20 09:34:43;;;;;;;7.70;1.52;;;;;;;;;;6273140;22;20442;-74
2022/08/20 09:37:08;;;;;;;5.97;1.77;;;;;;;;;;6272744;22;20175;-73
2022/08/20 09:39:34;;;;;;;4.77;1.57;;;;;;;;;;6274120;22;20600;-73
2022/08/20 09:42:06;;;;;;;4.75;1.58;;;;;;;;;;6273595;22;20358;-73
2022/08/20 09:44:31;;;;;;;4.70;1.80;;;;;;;;;;6273177;22;20169;-73
2022/08/20 09:46:56;;;;;;;6.13;1.83;;;;;;;;;;6272811;22;20257;-73
2022/08/20 09:49:21;;;;;;;6.87;1.50;;;;;;;;;;6272957;22;20195;-73
2022/08/20 09:51:46;;;;;;;7.10;1.37;;;;;;;;;;6271976;22;20956;-73
2022/08/20 09:54:11;;;;;;;6.43;1.93;;;;;;;;;;6273764;22;20152;-74
2022/08/20 09:56:37;;;;;;;7.10;1.55;;;;;;;;;;6273555;22;20370;-74
2022/08/20 09:59:02;;;;;;;4.97;1.37;;;;;;;;;;6272829;22;20180;-73
2022/08/20 10:01:27;;;;;;;4.15;1.48;;;;;;;;;;6272054;22;20394;-74
2022/08/20 10:03:53;;;;;;;6.27;1.70;;;;;;;;;;6273991;22;20148;-74
2022/08/20 10:06:19;;;;;;;6.53;1.70;;;;;;;;;;6273936;22;20423;-74
2022/08/20 10:08:44;;;;;;;7.47;1.73;;;;;;;;;;6274113;22;20496;-74
2022/08/20 10:11:10;;;;;;;7.47;1.83;;;;;;;;;;6273576;22;20160;-73
2022/08/20 10:13:35;;;;;;;5.25;1.40;;;;;;;;;;6273439;22;20202;-73
2022/08/20 10:16:00;;;;;;;6.10;1.70;;;;;;;;;;6273258;22;20163;-74
2022/08/20 10:18:25;;;;;;;4.40;1.77;;;;;;;;;;6272974;22;20362;-73
2022/08/20 10:20:50;;;;;;;6.67;2.33;;;;;;;;;;6270484;22;20381;-73
2022/08/20 10:23:16;;;;;;;6.60;1.83;;;;;;;;;;6272806;22;20790;-74
2022/08/20 10:25:41;;;;;;;5.55;2.42;;;;;;;;;;6273017;22;20179;-73
2022/08/20 10:28:06;;;;;;;6.15;2.28;;;;;;;;;;6297868;22;20140;-73
2022/08/20 10:30:32;;;;;;;7.00;1.63;;;;;;;;;;6273428;22;20165;-73
2022/08/20 10:32:57;;;;;;;4.63;1.70;;;;;;;;;;6273343;22;20180;-73
2022/08/20 10:35:23;;;;;;;7.63;1.83;;;;;;;;;;6272055;22;20255;-74
2022/08/20 10:37:48;;;;;;;4.73;1.37;;;;;;;;;;6273385;22;20194;-73
2022/08/20 10:40:16;;;;;;;7.07;1.98;;;;;;;;;;6273281;22;20411;-74
2022/08/20 10:42:42;;;;;;;6.95;2.00;;;;;;;;;;6273493;22;20481;-74
2022/08/20 10:45:08;;;;;;;4.43;1.52;;;;;;;;;;6272873;22;20192;-74
2022/08/20 10:47:33;;;;;;;9.20;2.10;;;;;;;;;;6273711;22;20144;-74
2022/08/20 10:50:00;;;;;;;5.83;1.93;;;;;;;;;;6273282;22;20171;-74
2022/08/20 10:52:26;;;;;;;4.47;1.60;;;;;;;;;;6273237;22;20140;-74
2022/08/20 10:54:51;;;;;;;5.47;1.60;;;;;;;;;;6272121;22;20499;-74
2022/08/20 10:57:21;;;;;;;7.53;1.98;;;;;;;;;;6272179;22;20144;-74
2022/08/20 10:59:47;;;;;;;7.97;1.77;;;;;;;;;;6272465;22;20155;-73
2022/08/20 11:02:13;;;;;;;5.25;1.52;;;;;;;;;;6272753;22;20137;-71
2022/08/20 11:04:39;;;;;;;4.43;1.30;;;;;;;;;;6273284;22;20223;-71
2022/08/20 11:07:12;;;;;;;5.95;2.65;;;;;;;;;;6273885;22;20484;-71
2022/08/20 11:09:37;;;;;;;8.48;2.10;;;;;;;;;;6273278;22;20175;-71
2022/08/20 11:12:02;;;;;;;5.53;1.83;;;;;;;;;;6272933;22;20441;-70
2022/08/20 11:14:27;;;;;;;9.50;2.13;;;;;;;;;;6275046;22;20175;-70
2022/08/20 11:16:53;;;;;;;8.43;2.37;;;;;;;;;;6274729;22;20144;-71
2022/08/20 11:19:18;;;;;;;7.03;1.73;;;;;;;;;;6275827;22;20419;-71
2022/08/20 11:21:43;;;;;;;5.37;2.10;;;;;;;;;;6274614;22;20545;-71
2022/08/20 11:24:08;;;;;;;4.37;1.50;;;;;;;;;;6276004;22;20223;-71
2022/08/20 11:26:33;;;;;;;5.27;1.57;;;;;;;;;;6274296;22;20144;-73
2022/08/20 11:28:58;;;;;;;6.03;2.37;;;;;;;;;;6275415;22;20145;-71
2022/08/20 11:31:24;;;;;;;14.77;2.43;;;;;;;;;;6274041;22;20377;-71
2022/08/20 11:33:49;;;;;;;6.90;2.17;;;;;;;;;;6274902;22;20498;-71
2022/08/20 11:36:14;;;;;;;8.70;1.93;;;;;;;;;;6274445;22;20204;-71
2022/08/20 11:38:39;;;;;;;8.40;2.50;;;;;;;;;;6275386;22;20156;-71
2022/08/20 11:41:04;;;;;;;6.97;2.15;;;;;;;;;;6274235;22;20180;-71
2022/08/20 11:43:30;;;;;;;8.57;2.30;;;;;;;;;;6273955;22;20160;-71
2022/08/20 11:45:56;;;;;;;7.70;2.17;;;;;;;;;;6268840;22;20435;-73
2022/08/20 11:48:21;;;;;;;7.43;2.30;;;;;;;;;;6273698;22;20358;-73
2022/08/20 11:50:47;;;;;;;6.18;1.77;;;;;;;;;;6270886;22;20164;-73
2022/08/20 11:53:12;;;;;;;4.10;1.83;;;;;;;;;;6272433;22;20156;-73
2022/08/20 11:55:38;;;;;;;6.28;2.08;;;;;;;;;;6272477;22;20585;-73
2022/08/20 11:58:03;;;;;;;7.82;2.88;;;;;;;;;;6297950;22;20152;-73
2022/08/20 12:00:29;;;;;;;5.97;2.13;;;;;;;;;;6272979;22;20207;-73
2022/08/20 12:02:55;;;;;;;8.93;2.63;;;;;;;;;;6272378;22;20361;-73
2022/08/20 12:05:20;;;;;;;7.25;2.30;;;;;;;;;;6273102;22;20178;-73
2022/08/20 12:07:45;;;;;;;8.40;2.67;;;;;;;;;;6273343;22;20596;-73
2022/08/20 12:10:11;;;;;;;7.25;2.10;;;;;;;;;;6273733;22;20177;-73
2022/08/20 12:12:37;;;;;;;5.15;2.35;;;;;;;;;;6272901;22;20223;-73
2022/08/20 12:15:03;;;;;;;7.22;2.65;;;;;;;;;;6271675;22;20152;-73
2022/08/20 12:17:29;;;;;;;7.85;2.75;;;;;;;;;;6271995;22;20157;-73
2022/08/20 12:19:56;;;;;;;10.00;2.08;;;;;;;;;;6273113;22;20172;-73
2022/08/20 12:22:21;;;;;;;9.40;2.33;;;;;;;;;;6271491;22;20144;-73
2022/08/20 12:24:46;;;;;;;6.28;1.48;;;;;;;;;;6273078;22;20199;-72
2022/08/20 12:27:14;;;;;;;4.40;1.80;;;;;;;;;;6272808;22;20613;-73
2022/08/20 12:29:40;;;;;;;8.13;2.00;;;;;;;;;;6274005;22;20358;-73
2022/08/20 12:32:06;;;;;;;7.25;1.65;;;;;;;;;;6272275;22;20163;-73
2022/08/20 12:34:32;;;;;;;5.35;1.48;;;;;;;;;;6272509;22;20148;-73
2022/08/20 12:37:04;;;;;;;5.20;1.67;;;;;;;;;;6274221;22;20148;-72
2022/08/20 12:39:36;;;;;;;4.38;1.73;;;;;;;;;;6272875;22;20148;-72
2022/08/20 12:42:02;;;;;;;7.45;2.25;;;;;;;;;;6273019;22;20129;-73
2022/08/20 12:44:28;;;;;;;4.82;1.67;;;;;;;;;;6273982;22;20222;-72
2022/08/20 12:47:03;;;;;;;7.85;2.75;;;;;;;;;;6272113;22;20149;-73
2022/08/20 12:49:29;;;;;;;6.32;1.60;;;;;;;;;;6273247;22;20160;-72
2022/08/20 12:51:54;;;;;;;6.83;2.00;;;;;;;;;;6270853;22;20499;-72
2022/08/20 12:54:19;;;;;;;7.10;1.87;;;;;;;;;;6273548;22;20223;-73
2022/08/20 12:56:44;;;;;;;6.00;2.20;;;;;;;;;;6270254;22;20144;-72
2022/08/20 12:59:10;;;;;;;5.65;1.70;;;;;;;;;;6271835;22;20361;-73
2022/08/20 13:01:35;;;;;;;5.70;1.80;;;;;;;;;;6270871;22;20529;-73
2022/08/20 13:04:00;;;;;;;6.47;1.67;;;;;;;;;;6272160;22;20739;-72
2022/08/20 13:06:25;;;;;;;6.13;1.80;;;;;;;;;;6271858;22;20761;-73
2022/08/20 13:08:50;;;;;;;6.05;1.85;;;;;;;;;;6272107;22;20436;-73
2022/08/20 13:11:16;;;;;;;4.60;1.80;;;;;;;;;;6272549;22;20160;-73
2022/08/20 13:13:42;;;;;;;7.30;1.50;;;;;;;;;;6273386;22;20223;-72
2022/08/20 13:16:07;;;;;;;6.38;1.88;;;;;;;;;;6273576;22;20151;-74
2022/08/20 13:18:32;;;;;;;7.97;1.90;;;;;;;;;;6272533;22;20354;-73
2022/08/20 13:20:57;;;;;;;6.80;1.73;;;;;;;;;;6272553;22;20485;-74
2022/08/20 13:23:23;;;;;;;7.20;1.80;;;;;;;;;;6273060;22;20376;-73
2022/08/20 13:25:48;;;;;;;8.07;1.90;;;;;;;;;;6273319;22;20612;-73
2022/08/20 13:28:13;;;;;;;4.67;1.90;;;;;;;;;;6272514;22;20156;-73
2022/08/20 13:30:40;;;;;;;7.93;1.93;;;;;;;;;;6272954;22;20548;-73
2022/08/20 13:33:05;;;;;;;4.60;2.13;;;;;;;;;;6270822;22;20373;-73
2022/08/20 13:35:30;;;;;;;8.20;2.27;;;;;;;;;;6273321;22;20341;-72
2022/08/20 13:37:55;;;;;;;6.07;2.25;;;;;;;;;;6272283;22;20373;-73
2022/08/20 13:40:21;;;;;;;5.27;2.13;;;;;;;;;;6273522;22;20183;-72
2022/08/20 13:42:46;;;;;;;8.47;2.27;;;;;;;;;;6271900;22;20452;-73
2022/08/20 13:45:12;;;;;;;6.20;2.57;;;;;;;;;;6273768;22;20408;-73
2022/08/20 13:47:38;;;;;;;8.75;2.13;;;;;;;;;;6270153;22;20381;-72
2022/08/20 13:50:08;;;;;;;8.25;2.45;;;;;;;;;;6271445;22;20277;-73
2022/08/20 13:52:34;;;;;;;4.90;1.85;;;;;;;;;;6297360;22;20156;-72
2022/08/20 13:54:59;;;;;;;8.32;1.98;;;;;;;;;;6272742;22;20610;-72
2022/08/20 13:57:25;;;;;;;8.37;2.30;;;;;;;;;;6273153;22;20619;-72
2022/08/20 13:59:52;;;;;;;7.43;2.28;;;;;;;;;;6272700;22;20152;-72
2022/08/20 14:02:17;;;;;;;3.72;1.90;;;;;;;;;;6271887;22;20488;-73
2022/08/20 14:04:43;;;;;;;6.38;2.63;;;;;;;;;;6271975;22;20176;-72
2022/08/20 14:07:11;;;;;;;9.82;1.90;;;;;;;;;;6272845;22;20163;-73
2022/08/20 14:09:38;;;;;;;7.13;2.28;;;;;;;;;;6272002;22;20185;-73
2022/08/20 14:12:03;;;;;;;4.97;1.90;;;;;;;;;;6272366;22;20240;-74
2022/08/20 14:14:28;;;;;;;6.63;1.90;;;;;;;;;;6273858;22;20185;-73
2022/08/20 14:16:54;;;;;;;6.32;1.90;;;;;;;;;;6272344;22;20148;-73
2022/08/20 14:19:19;;;;;;;7.63;2.15;;;;;;;;;;6271346;22;20149;-73
2022/08/20 14:21:44;;;;;;;6.63;1.90;;;;;;;;;;6273009;22;20250;-73
2022/08/20 14:24:09;;;;;;;6.77;2.00;;;;;;;;;;6271794;22;20153;-73
2022/08/20 14:26:34;;;;;;;4.87;1.83;;;;;;;;;;6273296;22;20183;-73
2022/08/20 14:28:59;;;;;;;5.27;1.97;;;;;;;;;;6273083;22;20364;-73
2022/08/20 14:31:25;;;;;;;5.13;1.70;;;;;;;;;;6271857;22;20373;-74
2022/08/20 14:33:50;;;;;;;4.07;2.23;;;;;;;;;;6273201;22;20366;-73